Terminal Aerodrome Forecast
Issued by NWS

Home | Current Version | Previous Version | Text Only | Print | Product List | Glossary On
Versions: 1 2 3 4 5 6 7 8 9 10 11 12 13
675
FTUS45 KRIW 291724
TAFRKS
TAF
KRKS 291724Z 2918/3018 23007KT P6SM SCT100
     FM292100 VRB10G16KT P6SM VCTS SCT060CB BKN100
     FM300100 23006KT P6SM VCSH SCT060 BKN090
     FM300600 22006KT P6SM BKN090
     FM301600 27012G18KT P6SM FEW120=

USA.gov is the U.S. government's official web portal to all federal, state and local government web resources and services.